sensor_id;sensor_type;location;lat;lon;timestamp;pressure;altitude;pressure_sealevel;temperature;humidity
77889;BME280;67082;41.704;44.768;2024-01-27T08:48:55;95163.69;;;6.40;66.82
77889;BME280;67082;41.704;44.768;2024-01-27T08:51:24;95157.00;;;6.53;65.81
77889;BME280;67082;41.704;44.768;2024-01-27T08:53:52;95164.72;;;6.17;66.60
77889;BME280;67082;41.704;44.768;2024-01-27T08:56:21;95161.75;;;6.12;67.81
77889;BME280;67082;41.704;44.768;2024-01-27T08:58:49;95164.88;;;5.98;67.84
77889;BME280;67082;41.704;44.768;2024-01-27T09:01:18;95158.72;;;5.78;68.82
77889;BME280;67082;41.704;44.768;2024-01-27T09:03:46;95155.47;;;5.83;68.95
77889;BME280;67082;41.704;44.768;2024-01-27T09:06:15;95160.56;;;5.84;68.81
77889;BME280;67082;41.704;44.768;2024-01-27T09:08:44;95150.84;;;6.21;67.49
77889;BME280;67082;41.704;44.768;2024-01-27T09:11:13;95150.25;;;6.42;67.58
77889;BME280;67082;41.704;44.768;2024-01-27T09:13:41;95143.44;;;6.59;66.82
77889;BME280;67082;41.704;44.768;2024-01-27T09:16:09;95137.41;;;6.76;65.36
77889;BME280;67082;41.704;44.768;2024-01-27T09:18:40;95142.16;;;6.76;65.61
77889;BME280;67082;41.704;44.768;2024-01-27T09:21:09;95137.31;;;6.80;65.79
77889;BME280;67082;41.704;44.768;2024-01-27T09:23:37;95128.81;;;6.74;66.33
77889;BME280;67082;41.704;44.768;2024-01-27T09:26:06;95127.28;;;6.86;67.12
77889;BME280;67082;41.704;44.768;2024-01-27T09:28:34;95135.31;;;6.93;66.11
77889;BME280;67082;41.704;44.768;2024-01-27T09:31:03;95123.75;;;6.98;65.90
77889;BME280;67082;41.704;44.768;2024-01-27T09:33:31;95118.13;;;6.39;66.99
77889;BME280;67082;41.704;44.768;2024-01-27T09:35:59;95122.69;;;6.17;66.38
77889;BME280;67082;41.704;44.768;2024-01-27T09:38:28;95125.31;;;6.08;67.07
77889;BME280;67082;41.704;44.768;2024-01-27T09:40:56;95118.94;;;6.11;67.54
77889;BME280;67082;41.704;44.768;2024-01-27T09:43:25;95108.06;;;6.07;67.40
77889;BME280;67082;41.704;44.768;2024-01-27T09:45:54;95107.00;;;5.89;67.99
77889;BME280;67082;41.704;44.768;2024-01-27T09:48:27;95106.47;;;5.94;67.00
77889;BME280;67082;41.704;44.768;2024-01-27T09:50:58;95098.81;;;6.01;67.46
77889;BME280;67082;41.704;44.768;2024-01-27T09:53:26;95099.63;;;5.86;67.51
77889;BME280;67082;41.704;44.768;2024-01-27T09:55:58;95096.47;;;6.00;67.32
77889;BME280;67082;41.704;44.768;2024-01-27T09:58:26;95095.84;;;5.80;67.79
77889;BME280;67082;41.704;44.768;2024-01-27T10:00:58;95090.19;;;5.87;68.40
77889;BME280;67082;41.704;44.768;2024-01-27T10:03:28;95091.38;;;5.86;68.16
77889;BME280;67082;41.704;44.768;2024-01-27T10:05:57;95087.63;;;5.80;67.90
77889;BME280;67082;41.704;44.768;2024-01-27T10:08:26;95085.53;;;5.84;68.19
77889;BME280;67082;41.704;44.768;2024-01-27T10:10:55;95083.13;;;5.86;68.56
77889;BME280;67082;41.704;44.768;2024-01-27T10:13:27;95071.19;;;5.76;68.50
77889;BME280;67082;41.704;44.768;2024-01-27T10:16:06;95076.03;;;5.72;69.01
77889;BME280;67082;41.704;44.768;2024-01-27T10:18:35;95075.09;;;5.63;69.08
77889;BME280;67082;41.704;44.768;2024-01-27T10:21:17;95086.97;;;5.60;68.93
77889;BME280;67082;41.704;44.768;2024-01-27T10:23:46;95073.66;;;5.58;68.98
77889;BME280;67082;41.704;44.768;2024-01-27T10:26:15;95074.41;;;5.46;69.74
77889;BME280;67082;41.704;44.768;2024-01-27T10:28:43;95060.19;;;5.64;68.66
77889;BME280;67082;41.704;44.768;2024-01-27T10:31:19;95073.38;;;5.69;69.23
77889;BME280;67082;41.704;44.768;2024-01-27T10:33:52;95075.94;;;5.47;69.75
77889;BME280;67082;41.704;44.768;2024-01-27T10:36:22;95073.25;;;5.60;69.84
77889;BME280;67082;41.704;44.768;2024-01-27T10:38:51;95082.41;;;5.69;69.47
77889;BME280;67082;41.704;44.768;2024-01-27T10:41:24;95076.78;;;5.73;69.36
77889;BME280;67082;41.704;44.768;2024-01-27T10:43:54;95078.53;;;5.67;69.88
77889;BME280;67082;41.704;44.768;2024-01-27T10:46:26;95082.78;;;5.84;68.79
77889;BME280;67082;41.704;44.768;2024-01-27T10:48:55;95084.34;;;5.85;68.86
77889;BME280;67082;41.704;44.768;2024-01-27T10:51:31;95079.31;;;5.96;68.41
77889;BME280;67082;41.704;44.768;2024-01-27T10:54:03;95074.59;;;5.96;68.29
77889;BME280;67082;41.704;44.768;2024-01-27T10:56:32;95070.19;;;6.11;67.65
77889;BME280;67082;41.704;44.768;2024-01-27T10:59:08;95073.38;;;5.97;67.77
77889;BME280;67082;41.704;44.768;2024-01-27T11:01:38;95075.50;;;6.18;67.56
77889;BME280;67082;41.704;44.768;2024-01-27T11:04:08;95076.28;;;6.19;67.49
77889;BME280;67082;41.704;44.768;2024-01-27T11:06:39;95070.34;;;6.33;66.44
77889;BME280;67082;41.704;44.768;2024-01-27T11:09:08;95082.22;;;6.30;66.55
77889;BME280;67082;41.704;44.768;2024-01-27T11:11:37;95073.84;;;6.21;66.91
77889;BME280;67082;41.704;44.768;2024-01-27T11:14:06;95074.06;;;6.14;66.85
77889;BME280;67082;41.704;44.768;2024-01-27T11:16:35;95074.06;;;6.14;67.72
77889;BME280;67082;41.704;44.768;2024-01-27T11:19:06;95074.72;;;6.18;67.19
77889;BME280;67082;41.704;44.768;2024-01-27T11:21:36;95074.72;;;6.18;67.20
77889;BME280;67082;41.704;44.768;2024-01-27T11:26:42;95073.31;;;6.26;67.42
77889;BME280;67082;41.704;44.768;2024-01-27T11:29:10;95083.66;;;6.34;67.37
77889;BME280;67082;41.704;44.768;2024-01-27T11:31:48;95075.88;;;6.33;67.07
77889;BME280;67082;41.704;44.768;2024-01-27T11:34:18;95081.31;;;6.08;66.87
77889;BME280;67082;41.704;44.768;2024-01-27T11:36:49;95077.50;;;6.30;66.63
77889;BME280;67082;41.704;44.768;2024-01-27T11:39:27;95081.25;;;6.36;66.73
77889;BME280;67082;41.704;44.768;2024-01-27T11:42:12;95081.16;;;6.40;66.65
77889;BME280;67082;41.704;44.768;2024-01-27T11:44:42;95081.25;;;6.49;66.80
77889;BME280;67082;41.704;44.768;2024-01-27T11:47:18;95084.88;;;6.46;66.79
77889;BME280;67082;41.704;44.768;2024-01-27T11:49:54;95084.09;;;6.45;66.68
77889;BME280;67082;41.704;44.768;2024-01-27T11:52:27;95086.09;;;6.45;66.52
77889;BME280;67082;41.704;44.768;2024-01-27T11:54:56;95085.44;;;6.53;66.96
77889;BME280;67082;41.704;44.768;2024-01-27T11:57:25;95090.50;;;6.55;66.13
77889;BME280;67082;41.704;44.768;2024-01-27T11:59:54;95079.28;;;6.62;66.69
77889;BME280;67082;41.704;44.768;2024-01-27T12:02:22;95087.75;;;6.67;66.03
77889;BME280;67082;41.704;44.768;2024-01-27T12:04:51;95078.38;;;6.65;66.77
77889;BME280;67082;41.704;44.768;2024-01-27T12:07:19;95093.91;;;6.59;66.27
77889;BME280;67082;41.704;44.768;2024-01-27T12:09:49;95091.91;;;6.34;66.99
77889;BME280;67082;41.704;44.768;2024-01-27T12:12:19;95097.16;;;6.16;68.05
77889;BME280;67082;41.704;44.768;2024-01-27T12:14:49;95099.28;;;6.37;67.27
77889;BME280;67082;41.704;44.768;2024-01-27T12:17:19;95105.06;;;6.02;68.86
77889;BME280;67082;41.704;44.768;2024-01-27T12:19:49;95104.09;;;6.08;68.41
77889;BME280;67082;41.704;44.768;2024-01-27T12:25:10;95110.97;;;5.88;68.56
77889;BME280;67082;41.704;44.768;2024-01-27T12:27:44;95118.03;;;5.73;69.34
77889;BME280;67082;41.704;44.768;2024-01-27T12:30:12;95114.09;;;6.02;67.87
77889;BME280;67082;41.704;44.768;2024-01-27T12:32:41;95120.59;;;6.21;67.10
77889;BME280;67082;41.704;44.768;2024-01-27T12:35:10;95118.16;;;6.10;67.69
77889;BME280;67082;41.704;44.768;2024-01-27T12:37:38;95125.03;;;6.31;67.29
77889;BME280;67082;41.704;44.768;2024-01-27T12:40:22;95128.34;;;6.38;67.35
77889;BME280;67082;41.704;44.768;2024-01-27T12:42:51;95136.81;;;6.44;67.39
77889;BME280;67082;41.704;44.768;2024-01-27T12:45:19;95121.88;;;6.45;67.46
77889;BME280;67082;41.704;44.768;2024-01-27T12:47:49;95130.00;;;6.36;66.63
77889;BME280;67082;41.704;44.768;2024-01-27T12:50:18;95123.94;;;6.41;67.10
77889;BME280;67082;41.704;44.768;2024-01-27T12:52:47;95125.81;;;6.44;66.42
77889;BME280;67082;41.704;44.768;2024-01-27T12:55:15;95130.66;;;6.40;66.82
77889;BME280;67082;41.704;44.768;2024-01-27T12:57:46;95134.81;;;6.32;67.14
77889;BME280;67082;41.704;44.768;2024-01-27T13:00:14;95138.38;;;6.45;66.76
77889;BME280;67082;41.704;44.768;2024-01-27T13:02:43;95132.41;;;6.34;67.40
77889;BME280;67082;41.704;44.768;2024-01-27T13:05:11;95133.31;;;6.43;66.89
77889;BME280;67082;41.704;44.768;2024-01-27T13:07:39;95132.56;;;6.55;66.77
77889;BME280;67082;41.704;44.768;2024-01-27T13:10:08;95134.09;;;6.56;66.99
77889;BME280;67082;41.704;44.768;2024-01-27T13:12:36;95126.47;;;6.48;66.78
77889;BME280;67082;41.704;44.768;2024-01-27T13:15:04;95147.09;;;6.56;67.03
77889;BME280;67082;41.704;44.768;2024-01-27T13:17:34;95140.59;;;6.62;67.12
77889;BME280;67082;41.704;44.768;2024-01-27T13:20:02;95144.56;;;6.61;67.19
77889;BME280;67082;41.704;44.768;2024-01-27T13:22:31;95147.75;;;6.60;67.13
77889;BME280;67082;41.704;44.768;2024-01-27T13:24:59;95136.84;;;6.69;67.64
77889;BME280;67082;41.704;44.768;2024-01-27T13:27:33;95134.44;;;6.71;66.75
77889;BME280;67082;41.704;44.768;2024-01-27T13:30:02;95139.25;;;6.67;67.56
77889;BME280;67082;41.704;44.768;2024-01-27T13:32:32;95137.28;;;6.67;67.74
77889;BME280;67082;41.704;44.768;2024-01-27T13:35:00;95143.00;;;6.73;67.31
77889;BME280;67082;41.704;44.768;2024-01-27T13:37:30;95147.09;;;6.81;67.69
77889;BME280;67082;41.704;44.768;2024-01-27T13:40:01;95142.91;;;6.64;68.03
77889;BME280;67082;41.704;44.768;2024-01-27T13:42:31;95153.44;;;5.99;70.47
77889;BME280;67082;41.704;44.768;2024-01-27T13:44:59;95151.31;;;5.91;70.33
77889;BME280;67082;41.704;44.768;2024-01-27T13:47:31;95152.72;;;5.67;71.69
77889;BME280;67082;41.704;44.768;2024-01-27T13:49:59;95142.53;;;5.96;70.71
77889;BME280;67082;41.704;44.768;2024-01-27T13:52:31;95148.03;;;6.24;70.67
77889;BME280;67082;41.704;44.768;2024-01-27T13:54:58;95157.44;;;6.11;69.90
77889;BME280;67082;41.704;44.768;2024-01-27T13:57:32;95147.31;;;6.08;69.97
77889;BME280;67082;41.704;44.768;2024-01-27T14:00:01;95155.34;;;6.15;70.17
77889;BME280;67082;41.704;44.768;2024-01-27T14:02:32;95155.72;;;6.29;70.18
77889;BME280;67082;41.704;44.768;2024-01-27T14:05:04;95147.66;;;6.10;70.28
77889;BME280;67082;41.704;44.768;2024-01-27T14:07:34;95164.75;;;6.30;69.70
77889;BME280;67082;41.704;44.768;2024-01-27T14:10:02;95155.97;;;6.35;70.04
77889;BME280;67082;41.704;44.768;2024-01-27T14:12:32;95154.44;;;5.93;70.54
77889;BME280;67082;41.704;44.768;2024-01-27T14:15:04;95157.81;;;5.52;70.90
77889;BME280;67082;41.704;44.768;2024-01-27T14:17:36;95153.97;;;5.34;71.83
77889;BME280;67082;41.704;44.768;2024-01-27T14:20:05;95158.88;;;5.42;71.65
77889;BME280;67082;41.704;44.768;2024-01-27T14:22:34;95161.38;;;5.37;71.92
77889;BME280;67082;41.704;44.768;2024-01-27T14:25:02;95166.34;;;5.42;71.90
77889;BME280;67082;41.704;44.768;2024-01-27T14:27:31;95164.00;;;5.56;71.16
77889;BME280;67082;41.704;44.768;2024-01-27T14:29:59;95155.88;;;5.53;71.98
77889;BME280;67082;41.704;44.768;2024-01-27T14:32:31;95159.78;;;5.52;71.37
77889;BME280;67082;41.704;44.768;2024-01-27T14:34:59;95161.53;;;5.46;72.62
77889;BME280;67082;41.704;44.768;2024-01-27T14:37:30;95165.06;;;5.30;73.17
77889;BME280;67082;41.704;44.768;2024-01-27T14:39:58;95171.75;;;5.13;73.08
77889;BME280;67082;41.704;44.768;2024-01-27T14:42:30;95172.38;;;5.21;72.21
77889;BME280;67082;41.704;44.768;2024-01-27T14:45:01;95168.25;;;4.97;73.60
77889;BME280;67082;41.704;44.768;2024-01-27T14:47:32;95176.13;;;5.11;73.99
77889;BME280;67082;41.704;44.768;2024-01-27T14:50:00;95184.88;;;5.54;72.51
77889;BME280;67082;41.704;44.768;2024-01-27T14:52:30;95188.88;;;5.65;71.37
77889;BME280;67082;41.704;44.768;2024-01-27T14:54:59;95196.41;;;5.77;71.49
77889;BME280;67082;41.704;44.768;2024-01-27T14:57:30;95190.19;;;5.61;71.99
77889;BME280;67082;41.704;44.768;2024-01-27T14:59:58;95192.75;;;5.52;71.97
77889;BME280;67082;41.704;44.768;2024-01-27T15:02:31;95189.06;;;5.90;70.62
77889;BME280;67082;41.704;44.768;2024-01-27T15:04:59;95187.53;;;6.02;70.05
77889;BME280;67082;41.704;44.768;2024-01-27T15:07:28;95193.31;;;6.20;69.47
77889;BME280;67082;41.704;44.768;2024-01-27T15:09:57;95195.94;;;6.11;69.21
77889;BME280;67082;41.704;44.768;2024-01-27T15:12:26;95201.69;;;5.72;69.91
77889;BME280;67082;41.704;44.768;2024-01-27T15:14:54;95204.75;;;5.74;69.64
77889;BME280;67082;41.704;44.768;2024-01-27T15:17:22;95211.94;;;5.39;71.87
77889;BME280;67082;41.704;44.768;2024-01-27T15:19:52;95215.97;;;5.83;70.00
77889;BME280;67082;41.704;44.768;2024-01-27T15:22:21;95215.97;;;6.11;68.74
77889;BME280;67082;41.704;44.768;2024-01-27T15:24:49;95220.84;;;6.20;69.00
77889;BME280;67082;41.704;44.768;2024-01-27T15:27:17;95212.84;;;6.25;68.98
77889;BME280;67082;41.704;44.768;2024-01-27T15:29:45;95216.38;;;6.38;68.36
77889;BME280;67082;41.704;44.768;2024-01-27T15:32:14;95213.34;;;5.92;69.94
77889;BME280;67082;41.704;44.768;2024-01-27T15:34:45;95207.75;;;6.24;68.77
77889;BME280;67082;41.704;44.768;2024-01-27T15:37:13;95216.09;;;6.49;68.11
77889;BME280;67082;41.704;44.768;2024-01-27T15:39:41;95213.56;;;6.54;68.74
77889;BME280;67082;41.704;44.768;2024-01-27T15:42:11;95218.97;;;6.58;67.93
77889;BME280;67082;41.704;44.768;2024-01-27T15:44:39;95215.78;;;6.59;68.20
77889;BME280;67082;41.704;44.768;2024-01-27T15:47:08;95217.09;;;6.55;68.10
77889;BME280;67082;41.704;44.768;2024-01-27T15:49:36;95226.03;;;6.59;67.72
77889;BME280;67082;41.704;44.768;2024-01-27T15:52:04;95228.44;;;6.57;68.61
77889;BME280;67082;41.704;44.768;2024-01-27T15:54:33;95230.09;;;6.54;68.63
77889;BME280;67082;41.704;44.768;2024-01-27T15:57:03;95225.38;;;6.67;67.39
77889;BME280;67082;41.704;44.768;2024-01-27T15:59:31;95230.25;;;6.76;68.33
77889;BME280;67082;41.704;44.768;2024-01-27T16:01:59;95234.16;;;6.21;68.83
77889;BME280;67082;41.704;44.768;2024-01-27T16:04:28;95234.81;;;6.54;68.32
77889;BME280;67082;41.704;44.768;2024-01-27T16:06:57;95237.53;;;5.84;70.84
77889;BME280;67082;41.704;44.768;2024-01-27T16:09:25;95235.41;;;6.04;71.35
77889;BME280;67082;41.704;44.768;2024-01-27T16:11:53;95226.00;;;6.18;70.55
77889;BME280;67082;41.704;44.768;2024-01-27T16:14:22;95224.41;;;6.33;69.97
77889;BME280;67082;41.704;44.768;2024-01-27T16:16:50;95234.06;;;6.25;70.58
77889;BME280;67082;41.704;44.768;2024-01-27T16:19:18;95229.03;;;6.36;70.68
77889;BME280;67082;41.704;44.768;2024-01-27T16:21:48;95230.31;;;6.60;69.73
77889;BME280;67082;41.704;44.768;2024-01-27T16:24:16;95225.97;;;6.34;70.08
77889;BME280;67082;41.704;44.768;2024-01-27T16:26:44;95220.56;;;6.43;68.82
77889;BME280;67082;41.704;44.768;2024-01-27T16:29:12;95225.22;;;6.58;69.34
77889;BME280;67082;41.704;44.768;2024-01-27T16:31:40;95238.00;;;6.52;68.61
77889;BME280;67082;41.704;44.768;2024-01-27T16:34:09;95246.50;;;6.58;68.20
77889;BME280;67082;41.704;44.768;2024-01-27T16:36:38;95239.47;;;6.57;68.23
77889;BME280;67082;41.704;44.768;2024-01-27T16:39:06;95239.84;;;6.43;68.87
77889;BME280;67082;41.704;44.768;2024-01-27T16:41:35;95237.91;;;6.27;68.73
77889;BME280;67082;41.704;44.768;2024-01-27T16:44:03;95236.34;;;6.55;68.80
77889;BME280;67082;41.704;44.768;2024-01-27T16:49:14;95242.31;;;6.66;67.63
77889;BME280;67082;41.704;44.768;2024-01-27T16:51:42;95245.31;;;6.71;67.60
77889;BME280;67082;41.704;44.768;2024-01-27T16:54:10;95252.06;;;6.83;67.07
77889;BME280;67082;41.704;44.768;2024-01-27T16:56:40;95251.94;;;6.86;67.27
77889;BME280;67082;41.704;44.768;2024-01-27T16:59:08;95257.88;;;6.72;67.26
77889;BME280;67082;41.704;44.768;2024-01-27T17:01:36;95253.06;;;6.48;68.31
77889;BME280;67082;41.704;44.768;2024-01-27T17:04:04;95256.88;;;6.66;68.98
77889;BME280;67082;41.704;44.768;2024-01-27T17:06:35;95265.72;;;6.74;67.62
77889;BME280;67082;41.704;44.768;2024-01-27T17:09:03;95273.59;;;6.72;68.23
77889;BME280;67082;41.704;44.768;2024-01-27T17:11:31;95263.97;;;6.80;67.87
77889;BME280;67082;41.704;44.768;2024-01-27T17:13:59;95266.06;;;6.88;67.83
77889;BME280;67082;41.704;44.768;2024-01-27T17:16:28;95268.34;;;6.90;66.87
77889;BME280;67082;41.704;44.768;2024-01-27T17:18:56;95260.31;;;6.70;67.69
77889;BME280;67082;41.704;44.768;2024-01-27T17:21:25;95275.72;;;6.80;67.66
77889;BME280;67082;41.704;44.768;2024-01-27T17:23:53;95274.75;;;6.87;67.10
77889;BME280;67082;41.704;44.768;2024-01-27T17:26:21;95282.22;;;6.74;68.00
77889;BME280;67082;41.704;44.768;2024-01-27T17:28:49;95275.75;;;6.52;68.65
77889;BME280;67082;41.704;44.768;2024-01-27T17:31:17;95262.47;;;6.34;69.40
77889;BME280;67082;41.704;44.768;2024-01-27T17:33:45;95265.56;;;6.65;67.74
77889;BME280;67082;41.704;44.768;2024-01-27T17:36:15;95270.03;;;6.87;67.38
77889;BME280;67082;41.704;44.768;2024-01-27T17:38:43;95273.66;;;6.84;68.54
77889;BME280;67082;41.704;44.768;2024-01-27T17:41:12;95279.56;;;6.70;68.42
77889;BME280;67082;41.704;44.768;2024-01-27T17:43:41;95272.38;;;6.60;67.43
77889;BME280;67082;41.704;44.768;2024-01-27T17:46:09;95287.78;;;6.58;66.10
77889;BME280;67082;41.704;44.768;2024-01-27T17:48:39;95281.75;;;6.63;65.60
77889;BME280;67082;41.704;44.768;2024-01-27T17:51:09;95284.84;;;6.36;66.39
77889;BME280;67082;41.704;44.768;2024-01-27T17:53:40;95284.34;;;6.25;65.91
77889;BME280;67082;41.704;44.768;2024-01-27T17:56:08;95287.31;;;6.47;65.30
77889;BME280;67082;41.704;44.768;2024-01-27T17:58:36;95286.25;;;6.57;64.35
77889;BME280;67082;41.704;44.768;2024-01-27T18:01:04;95286.13;;;6.32;64.39
77889;BME280;67082;41.704;44.768;2024-01-27T18:03:33;95294.22;;;6.39;63.46
77889;BME280;67082;41.704;44.768;2024-01-27T18:06:02;95284.16;;;6.61;62.10
77889;BME280;67082;41.704;44.768;2024-01-27T18:08:30;95295.03;;;6.52;63.49
77889;BME280;67082;41.704;44.768;2024-01-27T18:10:58;95287.25;;;6.63;61.61
77889;BME280;67082;41.704;44.768;2024-01-27T18:13:26;95290.44;;;6.61;62.50
77889;BME280;67082;41.704;44.768;2024-01-27T18:15:55;95295.47;;;6.22;62.73
77889;BME280;67082;41.704;44.768;2024-01-27T18:18:24;95296.41;;;6.44;62.56
77889;BME280;67082;41.704;44.768;2024-01-27T18:20:52;95293.13;;;6.49;62.81
77889;BME280;67082;41.704;44.768;2024-01-27T18:23:20;95304.63;;;6.31;60.75
77889;BME280;67082;41.704;44.768;2024-01-27T18:25:49;95289.38;;;6.43;62.15
77889;BME280;67082;41.704;44.768;2024-01-27T18:28:17;95298.94;;;6.38;62.60
77889;BME280;67082;41.704;44.768;2024-01-27T18:30:45;95288.84;;;6.48;61.04
77889;BME280;67082;41.704;44.768;2024-01-27T18:33:13;95299.22;;;6.56;60.75
77889;BME280;67082;41.704;44.768;2024-01-27T18:35:43;95312.56;;;6.58;60.71
77889;BME280;67082;41.704;44.768;2024-01-27T18:38:11;95297.25;;;6.57;60.65
77889;BME280;67082;41.704;44.768;2024-01-27T18:40:40;95298.75;;;6.45;61.43
77889;BME280;67082;41.704;44.768;2024-01-27T18:43:08;95303.38;;;6.48;60.77
77889;BME280;67082;41.704;44.768;2024-01-27T18:45:37;95291.28;;;6.58;60.79
77889;BME280;67082;41.704;44.768;2024-01-27T18:48:07;95299.13;;;6.60;60.30
77889;BME280;67082;41.704;44.768;2024-01-27T18:50:36;95294.50;;;6.57;60.72
77889;BME280;67082;41.704;44.768;2024-01-27T18:53:05;95302.84;;;6.25;61.34
77889;BME280;67082;41.704;44.768;2024-01-27T18:55:33;95308.94;;;6.32;61.35
77889;BME280;67082;41.704;44.768;2024-01-27T18:58:06;95294.09;;;6.14;61.36
77889;BME280;67082;41.704;44.768;2024-01-27T19:00:35;95300.72;;;6.45;61.24
77889;BME280;67082;41.704;44.768;2024-01-27T19:03:04;95297.72;;;6.11;61.20
77889;BME280;67082;41.704;44.768;2024-01-27T19:05:37;95299.22;;;6.28;61.57
77889;BME280;67082;41.704;44.768;2024-01-27T19:08:05;95289.63;;;6.48;60.56
77889;BME280;67082;41.704;44.768;2024-01-27T19:10:34;95295.22;;;6.45;60.88
77889;BME280;67082;41.704;44.768;2024-01-27T19:13:02;95295.94;;;6.61;59.69
77889;BME280;67082;41.704;44.768;2024-01-27T19:15:31;95296.91;;;6.55;60.26
77889;BME280;67082;41.704;44.768;2024-01-27T19:18:01;95302.50;;;6.23;60.29
77889;BME280;67082;41.704;44.768;2024-01-27T19:20:30;95302.84;;;6.09;61.04
77889;BME280;67082;41.704;44.768;2024-01-27T19:22:59;95303.34;;;6.20;60.65
77889;BME280;67082;41.704;44.768;2024-01-27T19:25:29;95304.13;;;6.20;60.69
77889;BME280;67082;41.704;44.768;2024-01-27T19:28:00;95308.84;;;6.20;60.26
77889;BME280;67082;41.704;44.768;2024-01-27T19:30:29;95308.03;;;6.35;60.59
77889;BME280;67082;41.704;44.768;2024-01-27T19:32:57;95298.84;;;6.42;59.12
77889;BME280;67082;41.704;44.768;2024-01-27T19:35:26;95304.88;;;6.37;59.75
77889;BME280;67082;41.704;44.768;2024-01-27T19:37:54;95301.47;;;6.33;60.17
77889;BME280;67082;41.704;44.768;2024-01-27T19:40:23;95301.66;;;6.10;60.57
77889;BME280;67082;41.704;44.768;2024-01-27T19:42:51;95300.97;;;6.50;59.48
77889;BME280;67082;41.704;44.768;2024-01-27T19:45:19;95291.59;;;6.48;59.09
77889;BME280;67082;41.704;44.768;2024-01-27T19:47:50;95313.59;;;6.48;59.75
77889;BME280;67082;41.704;44.768;2024-01-27T19:50:18;95313.50;;;6.51;60.10
77889;BME280;67082;41.704;44.768;2024-01-27T19:52:47;95311.84;;;6.41;60.75
77889;BME280;67082;41.704;44.768;2024-01-27T19:55:15;95310.31;;;6.24;60.02
77889;BME280;67082;41.704;44.768;2024-01-27T19:57:45;95306.28;;;6.29;60.26
77889;BME280;67082;41.704;44.768;2024-01-27T20:00:14;95315.44;;;6.38;59.89
77889;BME280;67082;41.704;44.768;2024-01-27T20:02:45;95311.69;;;6.32;60.29
77889;BME280;67082;41.704;44.768;2024-01-27T20:05:14;95314.22;;;6.39;59.85
77889;BME280;67082;41.704;44.768;2024-01-27T20:07:42;95307.09;;;6.42;60.30
77889;BME280;67082;41.704;44.768;2024-01-27T20:10:10;95312.09;;;6.31;59.46
77889;BME280;67082;41.704;44.768;2024-01-27T20:12:38;95309.63;;;6.20;59.52
77889;BME280;67082;41.704;44.768;2024-01-27T20:15:10;95306.09;;;6.20;60.26
77889;BME280;67082;41.704;44.768;2024-01-27T20:17:38;95315.72;;;6.28;60.30
77889;BME280;67082;41.704;44.768;2024-01-27T20:20:08;95348.78;;;6.40;60.09
77889;BME280;67082;41.704;44.768;2024-01-27T20:22:36;95323.81;;;6.19;60.17
77889;BME280;67082;41.704;44.768;2024-01-27T20:25:05;95324.63;;;6.03;60.22
77889;BME280;67082;41.704;44.768;2024-01-27T20:27:33;95330.13;;;6.03;60.54
77889;BME280;67082;41.704;44.768;2024-01-27T20:30:03;95341.72;;;6.11;60.29
77889;BME280;67082;41.704;44.768;2024-01-27T20:32:31;95343.25;;;6.12;59.82
77889;BME280;67082;41.704;44.768;2024-01-27T20:34:59;95332.16;;;6.31;59.41
77889;BME280;67082;41.704;44.768;2024-01-27T20:37:28;95341.34;;;6.09;60.35
77889;BME280;67082;41.704;44.768;2024-01-27T20:39:56;95347.38;;;6.20;59.64
77889;BME280;67082;41.704;44.768;2024-01-27T20:42:24;95352.78;;;6.23;60.62
77889;BME280;67082;41.704;44.768;2024-01-27T20:44:53;95353.75;;;6.01;61.35
77889;BME280;67082;41.704;44.768;2024-01-27T20:47:24;95352.44;;;6.21;60.67
77889;BME280;67082;41.704;44.768;2024-01-27T20:49:52;95352.34;;;6.25;60.66
77889;BME280;67082;41.704;44.768;2024-01-27T20:52:21;95345.28;;;6.40;60.26
77889;BME280;67082;41.704;44.768;2024-01-27T20:54:49;95368.00;;;6.28;60.50
77889;BME280;67082;41.704;44.768;2024-01-27T20:57:17;95365.59;;;6.30;61.06
77889;BME280;67082;41.704;44.768;2024-01-27T20:59:50;95364.47;;;6.27;60.79
77889;BME280;67082;41.704;44.768;2024-01-27T21:02:19;95371.97;;;6.11;60.71
77889;BME280;67082;41.704;44.768;2024-01-27T21:04:47;95355.78;;;6.29;60.38
77889;BME280;67082;41.704;44.768;2024-01-27T21:07:15;95369.88;;;6.15;60.22
77889;BME280;67082;41.704;44.768;2024-01-27T21:09:46;95360.88;;;6.14;59.49
77889;BME280;67082;41.704;44.768;2024-01-27T21:12:14;95370.56;;;6.35;60.05
77889;BME280;67082;41.704;44.768;2024-01-27T21:14:43;95363.69;;;6.27;58.61
77889;BME280;67082;41.704;44.768;2024-01-27T21:17:11;95380.38;;;6.20;59.66
77889;BME280;67082;41.704;44.768;2024-01-27T21:19:40;95363.53;;;6.18;60.20
77889;BME280;67082;41.704;44.768;2024-01-27T21:22:10;95377.56;;;6.07;59.73
77889;BME280;67082;41.704;44.768;2024-01-27T21:24:38;95370.91;;;6.37;59.87
77889;BME280;67082;41.704;44.768;2024-01-27T21:27:06;95383.31;;;6.13;59.92
77889;BME280;67082;41.704;44.768;2024-01-27T21:29:34;95372.63;;;6.31;58.85
77889;BME280;67082;41.704;44.768;2024-01-27T21:32:04;95378.91;;;6.31;59.11
77889;BME280;67082;41.704;44.768;2024-01-27T21:34:33;95383.63;;;6.15;59.32
77889;BME280;67082;41.704;44.768;2024-01-27T21:37:02;95372.66;;;5.99;60.25
77889;BME280;67082;41.704;44.768;2024-01-27T21:39:32;95369.56;;;6.13;58.29
77889;BME280;67082;41.704;44.768;2024-01-27T21:42:01;95375.56;;;6.08;58.62
77889;BME280;67082;41.704;44.768;2024-01-27T21:44:29;95365.75;;;6.39;58.42
77889;BME280;67082;41.704;44.768;2024-01-27T21:46:57;95372.09;;;6.36;58.70
77889;BME280;67082;41.704;44.768;2024-01-27T21:49:27;95377.44;;;6.27;58.87
77889;BME280;67082;41.704;44.768;2024-01-27T21:51:55;95363.13;;;6.03;59.16
77889;BME280;67082;41.704;44.768;2024-01-27T21:54:24;95387.25;;;6.12;59.31
77889;BME280;67082;41.704;44.768;2024-01-27T21:56:52;95376.94;;;6.00;59.48
77889;BME280;67082;41.704;44.768;2024-01-27T21:59:21;95384.09;;;6.13;59.53
77889;BME280;67082;41.704;44.768;2024-01-27T22:01:49;95391.38;;;6.20;58.60
77889;BME280;67082;41.704;44.768;2024-01-27T22:04:18;95378.81;;;6.03;59.21
77889;BME280;67082;41.704;44.768;2024-01-27T22:06:46;95368.84;;;6.25;59.52